Granite Falls, NC

12:49 AM EDT on September 05, 2015 (GMT -0400)
KNCGRANI2 | | Change Station
CLOSE
Current Station
Personal Weather Station
Location: Granite Falls, NC
Elevation: 1200 ft
Nearby Weather Stations

Elev 1200 ft 35.81 °N, 81.51 °W | Updated 4 minutes ago

Mostly Cloudy
Mostly Cloudy
69.1 °F
Feels Like 69.1 °F
N
0.0
Wind Variable Wind from NW
Gusts 2.0 mph

Today
High -- | Low -- °F
--% Chance of Precip.
Yesterday
High -- | Low -- °F
Precip. -- in
7:00 AM 7:48 PM
Waning Gibbous, 52% visible
Pressure 30.04 in
Visibility 10.0 miles
Clouds Mostly Cloudy 12000 ft
Dew Point 60 °F
Humidity 74%
Rainfall 0.00 in
Snow Depth Not available.
UV 0 out of 12
Pollen 9.50 out of 12
Air Quality Not available.
Flu Activity Not available.
METAR KHKY 050353Z AUTO 34003KT 10SM BKN120 21/18 A3011 RMK AO2 SLP173 T02060183
Pressure 30.04 in
Visibility 10.0 miles
Clouds Mostly Cloudy 12000 ft
Dew Point 60 °F
Humidity 74%
Rainfall 0.00 in
Snow Depth Not available.
UV 0 out of 12
Pollen 9.50 out of 12
Air Quality Not available.
Flu Activity Not available.
METAR KHKY 050353Z AUTO 34003KT 10SM BKN120 21/18 A3011 RMK AO2 SLP173 T02060183

10-Day Weather Forecast

×

Almanac

Astronomy

Sep. 05, 2015 Rise Set
Actual Time
Civil Twilight
Nautical Twilight
Astronomical Twilight
Moon
Length of Visible Light
Length of Day
Tomorrow will be .
, % of the Moon is Illuminated

Today's Extremes

State Highs State Lows

Community

WunderPhotos

Upload Photos

1,852,426 photos uploaded!

WunderBlogs® & News

Nearby

Air Quality

  Air Quality AQ Index Pollutant
Not available.

Snow Depth

Station Depth Elevation

Earthquake Activity

City Distance Mag. Time & Date
Minimum magnitude displayed is 2.5.

Coastal Water Temperatures

Place Temperature

Stations

Nearby Weather Stations

Station Location Temp. Windchill Dew Point Humidity Wind Precip. Elev Updated Type